sensor_id;sensor_type;location;lat;lon;timestamp;P1;durP1;ratioP1;P2;durP2;ratioP2
67776;SDS011;54576;52.020;5.536;2024-03-08T00:00:15;38.75;;;18.30;;
67776;SDS011;54576;52.020;5.536;2024-03-08T00:02:44;33.67;;;17.40;;
67776;SDS011;54576;52.020;5.536;2024-03-08T00:05:10;38.58;;;17.13;;
67776;SDS011;54576;52.020;5.536;2024-03-08T00:07:37;34.30;;;17.00;;
67776;SDS011;54576;52.020;5.536;2024-03-08T00:10:04;34.35;;;17.02;;
67776;SDS011;54576;52.020;5.536;2024-03-08T00:12:30;31.15;;;16.58;;
67776;SDS011;54576;52.020;5.536;2024-03-08T00:14:56;37.05;;;16.83;;
67776;SDS011;54576;52.020;5.536;2024-03-08T00:17:21;35.88;;;16.63;;
67776;SDS011;54576;52.020;5.536;2024-03-08T00:19:50;37.53;;;17.93;;
67776;SDS011;54576;52.020;5.536;2024-03-08T00:22:16;40.47;;;18.23;;
67776;SDS011;54576;52.020;5.536;2024-03-08T00:24:42;35.47;;;16.73;;
67776;SDS011;54576;52.020;5.536;2024-03-08T00:27:08;40.47;;;17.33;;
67776;SDS011;54576;52.020;5.536;2024-03-08T00:29:34;36.38;;;16.75;;
67776;SDS011;54576;52.020;5.536;2024-03-08T00:32:00;34.35;;;18.13;;
67776;SDS011;54576;52.020;5.536;2024-03-08T00:34:26;38.17;;;16.13;;
67776;SDS011;54576;52.020;5.536;2024-03-08T00:36:52;32.78;;;17.23;;
67776;SDS011;54576;52.020;5.536;2024-03-08T00:39:18;38.65;;;17.42;;
67776;SDS011;54576;52.020;5.536;2024-03-08T00:41:45;31.55;;;15.73;;
67776;SDS011;54576;52.020;5.536;2024-03-08T00:44:11;34.65;;;18.30;;
67776;SDS011;54576;52.020;5.536;2024-03-08T00:46:37;35.97;;;16.55;;
67776;SDS011;54576;52.020;5.536;2024-03-08T00:49:03;35.47;;;16.05;;
67776;SDS011;54576;52.020;5.536;2024-03-08T00:51:28;35.22;;;18.67;;
67776;SDS011;54576;52.020;5.536;2024-03-08T00:53:54;32.10;;;17.85;;
67776;SDS011;54576;52.020;5.536;2024-03-08T00:56:20;38.47;;;17.50;;
67776;SDS011;54576;52.020;5.536;2024-03-08T00:58:46;34.75;;;16.92;;
67776;SDS011;54576;52.020;5.536;2024-03-08T01:01:12;36.13;;;17.25;;
67776;SDS011;54576;52.020;5.536;2024-03-08T01:03:42;35.83;;;17.95;;
67776;SDS011;54576;52.020;5.536;2024-03-08T01:06:08;31.75;;;16.40;;
67776;SDS011;54576;52.020;5.536;2024-03-08T01:08:33;52.83;;;18.63;;
67776;SDS011;54576;52.020;5.536;2024-03-08T01:10:59;34.90;;;17.70;;
67776;SDS011;54576;52.020;5.536;2024-03-08T01:13:25;37.58;;;17.55;;
67776;SDS011;54576;52.020;5.536;2024-03-08T01:15:51;40.15;;;17.02;;
67776;SDS011;54576;52.020;5.536;2024-03-08T01:18:16;38.08;;;16.75;;
67776;SDS011;54576;52.020;5.536;2024-03-08T01:20:42;33.53;;;17.98;;
67776;SDS011;54576;52.020;5.536;2024-03-08T01:23:07;33.53;;;18.52;;
67776;SDS011;54576;52.020;5.536;2024-03-08T01:25:33;32.55;;;17.15;;
67776;SDS011;54576;52.020;5.536;2024-03-08T01:27:59;31.10;;;16.73;;
67776;SDS011;54576;52.020;5.536;2024-03-08T01:30:25;37.95;;;17.52;;
67776;SDS011;54576;52.020;5.536;2024-03-08T01:32:50;34.72;;;17.63;;
67776;SDS011;54576;52.020;5.536;2024-03-08T01:35:16;32.90;;;17.58;;
67776;SDS011;54576;52.020;5.536;2024-03-08T01:37:43;46.92;;;18.33;;
67776;SDS011;54576;52.020;5.536;2024-03-08T01:40:08;37.70;;;17.88;;
67776;SDS011;54576;52.020;5.536;2024-03-08T01:42:34;35.55;;;17.38;;
67776;SDS011;54576;52.020;5.536;2024-03-08T01:45:03;33.13;;;16.75;;
67776;SDS011;54576;52.020;5.536;2024-03-08T01:47:32;35.55;;;16.48;;
67776;SDS011;54576;52.020;5.536;2024-03-08T01:49:58;32.00;;;16.63;;
67776;SDS011;54576;52.020;5.536;2024-03-08T01:52:26;34.38;;;17.75;;
67776;SDS011;54576;52.020;5.536;2024-03-08T01:54:53;33.45;;;18.08;;
67776;SDS011;54576;52.020;5.536;2024-03-08T01:57:20;45.63;;;17.35;;
67776;SDS011;54576;52.020;5.536;2024-03-08T01:59:45;40.15;;;17.88;;
67776;SDS011;54576;52.020;5.536;2024-03-08T02:02:11;33.33;;;18.33;;
67776;SDS011;54576;52.020;5.536;2024-03-08T02:04:42;33.50;;;17.50;;
67776;SDS011;54576;52.020;5.536;2024-03-08T02:07:09;32.95;;;16.70;;
67776;SDS011;54576;52.020;5.536;2024-03-08T02:09:35;41.35;;;18.20;;
67776;SDS011;54576;52.020;5.536;2024-03-08T02:12:00;38.03;;;18.48;;
67776;SDS011;54576;52.020;5.536;2024-03-08T02:14:26;32.05;;;16.80;;
67776;SDS011;54576;52.020;5.536;2024-03-08T02:16:51;35.95;;;18.00;;
67776;SDS011;54576;52.020;5.536;2024-03-08T02:19:17;34.08;;;16.88;;
67776;SDS011;54576;52.020;5.536;2024-03-08T02:21:43;33.58;;;16.58;;
67776;SDS011;54576;52.020;5.536;2024-03-08T02:24:08;34.75;;;18.17;;
67776;SDS011;54576;52.020;5.536;2024-03-08T02:26:35;32.42;;;17.45;;
67776;SDS011;54576;52.020;5.536;2024-03-08T02:29:00;33.53;;;18.27;;
67776;SDS011;54576;52.020;5.536;2024-03-08T02:31:26;30.48;;;17.25;;
67776;SDS011;54576;52.020;5.536;2024-03-08T02:33:52;33.45;;;18.17;;
67776;SDS011;54576;52.020;5.536;2024-03-08T02:36:17;33.70;;;17.50;;
67776;SDS011;54576;52.020;5.536;2024-03-08T02:38:43;30.17;;;17.38;;
67776;SDS011;54576;52.020;5.536;2024-03-08T02:41:09;35.45;;;19.30;;
67776;SDS011;54576;52.020;5.536;2024-03-08T02:43:35;39.22;;;18.30;;
67776;SDS011;54576;52.020;5.536;2024-03-08T02:46:01;36.10;;;19.35;;
67776;SDS011;54576;52.020;5.536;2024-03-08T02:48:26;38.13;;;17.55;;
67776;SDS011;54576;52.020;5.536;2024-03-08T02:50:52;31.15;;;17.50;;
67776;SDS011;54576;52.020;5.536;2024-03-08T02:53:17;34.55;;;17.65;;
67776;SDS011;54576;52.020;5.536;2024-03-08T02:55:44;36.85;;;18.95;;
67776;SDS011;54576;52.020;5.536;2024-03-08T02:58:09;32.13;;;16.38;;
67776;SDS011;54576;52.020;5.536;2024-03-08T03:00:35;30.52;;;18.20;;
67776;SDS011;54576;52.020;5.536;2024-03-08T03:03:01;33.78;;;18.20;;
67776;SDS011;54576;52.020;5.536;2024-03-08T03:05:28;35.17;;;18.02;;
67776;SDS011;54576;52.020;5.536;2024-03-08T03:07:54;29.33;;;17.23;;
67776;SDS011;54576;52.020;5.536;2024-03-08T03:10:20;35.65;;;18.08;;
67776;SDS011;54576;52.020;5.536;2024-03-08T03:12:49;34.80;;;18.70;;
67776;SDS011;54576;52.020;5.536;2024-03-08T03:15:15;35.50;;;17.50;;
67776;SDS011;54576;52.020;5.536;2024-03-08T03:17:50;35.67;;;17.13;;
67776;SDS011;54576;52.020;5.536;2024-03-08T03:20:20;32.58;;;18.48;;
67776;SDS011;54576;52.020;5.536;2024-03-08T03:22:51;32.03;;;17.40;;
67776;SDS011;54576;52.020;5.536;2024-03-08T03:25:18;35.75;;;18.08;;
67776;SDS011;54576;52.020;5.536;2024-03-08T03:27:48;30.80;;;17.00;;
67776;SDS011;54576;52.020;5.536;2024-03-08T03:30:14;31.73;;;17.10;;
67776;SDS011;54576;52.020;5.536;2024-03-08T03:32:49;34.63;;;18.60;;
67776;SDS011;54576;52.020;5.536;2024-03-08T03:37:47;41.33;;;18.08;;
67776;SDS011;54576;52.020;5.536;2024-03-08T03:40:27;36.72;;;17.08;;
67776;SDS011;54576;52.020;5.536;2024-03-08T03:42:56;32.22;;;17.55;;
67776;SDS011;54576;52.020;5.536;2024-03-08T03:45:22;30.23;;;17.33;;
67776;SDS011;54576;52.020;5.536;2024-03-08T03:47:48;38.60;;;19.50;;
67776;SDS011;54576;52.020;5.536;2024-03-08T03:50:13;32.97;;;17.73;;
67776;SDS011;54576;52.020;5.536;2024-03-08T03:52:39;36.78;;;17.80;;
67776;SDS011;54576;52.020;5.536;2024-03-08T03:55:05;35.70;;;18.58;;
67776;SDS011;54576;52.020;5.536;2024-03-08T03:57:31;34.50;;;17.63;;
67776;SDS011;54576;52.020;5.536;2024-03-08T03:59:56;34.63;;;17.52;;
67776;SDS011;54576;52.020;5.536;2024-03-08T04:02:23;32.38;;;17.55;;
67776;SDS011;54576;52.020;5.536;2024-03-08T04:04:51;37.22;;;18.70;;
67776;SDS011;54576;52.020;5.536;2024-03-08T04:07:20;34.63;;;17.88;;
67776;SDS011;54576;52.020;5.536;2024-03-08T04:09:46;35.00;;;18.27;;
67776;SDS011;54576;52.020;5.536;2024-03-08T04:12:11;33.25;;;18.17;;
67776;SDS011;54576;52.020;5.536;2024-03-08T04:14:38;34.97;;;18.23;;
67776;SDS011;54576;52.020;5.536;2024-03-08T04:17:06;35.55;;;18.30;;
67776;SDS011;54576;52.020;5.536;2024-03-08T04:19:33;36.05;;;17.92;;
67776;SDS011;54576;52.020;5.536;2024-03-08T04:21:59;30.48;;;17.83;;
67776;SDS011;54576;52.020;5.536;2024-03-08T04:24:26;31.42;;;17.48;;
67776;SDS011;54576;52.020;5.536;2024-03-08T04:26:51;36.45;;;19.15;;
67776;SDS011;54576;52.020;5.536;2024-03-08T04:29:18;33.35;;;19.67;;
67776;SDS011;54576;52.020;5.536;2024-03-08T04:31:43;38.17;;;19.65;;
67776;SDS011;54576;52.020;5.536;2024-03-08T04:34:09;30.55;;;17.73;;
67776;SDS011;54576;52.020;5.536;2024-03-08T04:36:35;34.55;;;18.50;;
67776;SDS011;54576;52.020;5.536;2024-03-08T04:39:01;29.65;;;17.90;;
67776;SDS011;54576;52.020;5.536;2024-03-08T04:41:27;40.55;;;18.95;;
67776;SDS011;54576;52.020;5.536;2024-03-08T04:43:52;33.42;;;19.23;;
67776;SDS011;54576;52.020;5.536;2024-03-08T04:46:18;36.75;;;18.77;;
67776;SDS011;54576;52.020;5.536;2024-03-08T04:48:44;33.15;;;18.45;;
67776;SDS011;54576;52.020;5.536;2024-03-08T04:51:09;29.80;;;17.50;;
67776;SDS011;54576;52.020;5.536;2024-03-08T04:53:38;42.33;;;18.42;;
67776;SDS011;54576;52.020;5.536;2024-03-08T04:56:04;34.60;;;19.50;;
67776;SDS011;54576;52.020;5.536;2024-03-08T04:58:32;29.48;;;18.27;;
67776;SDS011;54576;52.020;5.536;2024-03-08T05:01:00;37.58;;;19.15;;
67776;SDS011;54576;52.020;5.536;2024-03-08T05:03:26;32.83;;;19.20;;
67776;SDS011;54576;52.020;5.536;2024-03-08T05:05:52;31.15;;;17.65;;
67776;SDS011;54576;52.020;5.536;2024-03-08T05:08:18;39.25;;;19.23;;
67776;SDS011;54576;52.020;5.536;2024-03-08T05:10:44;31.02;;;17.67;;
67776;SDS011;54576;52.020;5.536;2024-03-08T05:13:10;35.00;;;19.73;;
67776;SDS011;54576;52.020;5.536;2024-03-08T05:15:37;32.15;;;17.30;;
67776;SDS011;54576;52.020;5.536;2024-03-08T05:18:04;37.42;;;19.30;;
67776;SDS011;54576;52.020;5.536;2024-03-08T05:20:30;33.85;;;19.35;;
67776;SDS011;54576;52.020;5.536;2024-03-08T05:23:02;35.97;;;18.33;;
67776;SDS011;54576;52.020;5.536;2024-03-08T05:25:28;37.15;;;19.25;;
67776;SDS011;54576;52.020;5.536;2024-03-08T05:27:54;37.15;;;19.10;;
67776;SDS011;54576;52.020;5.536;2024-03-08T05:30:20;33.10;;;18.73;;
67776;SDS011;54576;52.020;5.536;2024-03-08T05:32:46;32.10;;;18.40;;
67776;SDS011;54576;52.020;5.536;2024-03-08T05:35:12;32.75;;;18.52;;
67776;SDS011;54576;52.020;5.536;2024-03-08T05:37:41;31.90;;;18.67;;
67776;SDS011;54576;52.020;5.536;2024-03-08T05:40:07;42.53;;;19.27;;
67776;SDS011;54576;52.020;5.536;2024-03-08T05:42:34;32.45;;;18.75;;
67776;SDS011;54576;52.020;5.536;2024-03-08T05:45:01;33.92;;;19.23;;
67776;SDS011;54576;52.020;5.536;2024-03-08T05:47:27;39.85;;;19.35;;
67776;SDS011;54576;52.020;5.536;2024-03-08T05:49:53;39.63;;;19.55;;
67776;SDS011;54576;52.020;5.536;2024-03-08T05:52:18;27.95;;;17.60;;
67776;SDS011;54576;52.020;5.536;2024-03-08T05:54:44;38.38;;;18.40;;
67776;SDS011;54576;52.020;5.536;2024-03-08T05:57:11;35.20;;;19.98;;
67776;SDS011;54576;52.020;5.536;2024-03-08T05:59:36;45.80;;;22.35;;
67776;SDS011;54576;52.020;5.536;2024-03-08T06:02:02;33.47;;;20.05;;
67776;SDS011;54576;52.020;5.536;2024-03-08T06:04:28;37.45;;;19.42;;
67776;SDS011;54576;52.020;5.536;2024-03-08T06:06:54;34.50;;;18.98;;
67776;SDS011;54576;52.020;5.536;2024-03-08T06:09:22;33.70;;;18.77;;
67776;SDS011;54576;52.020;5.536;2024-03-08T06:11:48;36.45;;;18.63;;
67776;SDS011;54576;52.020;5.536;2024-03-08T06:14:14;34.28;;;19.77;;
67776;SDS011;54576;52.020;5.536;2024-03-08T06:16:43;35.47;;;17.80;;
67776;SDS011;54576;52.020;5.536;2024-03-08T06:19:09;35.75;;;19.90;;
67776;SDS011;54576;52.020;5.536;2024-03-08T06:21:35;36.03;;;18.85;;
67776;SDS011;54576;52.020;5.536;2024-03-08T06:24:01;37.83;;;19.27;;
67776;SDS011;54576;52.020;5.536;2024-03-08T06:26:27;31.17;;;18.50;;
67776;SDS011;54576;52.020;5.536;2024-03-08T06:28:53;37.83;;;19.25;;
67776;SDS011;54576;52.020;5.536;2024-03-08T06:31:19;40.45;;;20.00;;
67776;SDS011;54576;52.020;5.536;2024-03-08T06:33:45;32.10;;;20.42;;
67776;SDS011;54576;52.020;5.536;2024-03-08T06:36:10;32.95;;;19.55;;
67776;SDS011;54576;52.020;5.536;2024-03-08T06:38:37;34.45;;;19.83;;
67776;SDS011;54576;52.020;5.536;2024-03-08T06:41:07;39.10;;;21.67;;
67776;SDS011;54576;52.020;5.536;2024-03-08T06:43:41;36.25;;;19.08;;
67776;SDS011;54576;52.020;5.536;2024-03-08T06:46:10;34.85;;;19.02;;
67776;SDS011;54576;52.020;5.536;2024-03-08T06:48:39;36.45;;;19.65;;
67776;SDS011;54576;52.020;5.536;2024-03-08T06:51:05;40.53;;;19.20;;
67776;SDS011;54576;52.020;5.536;2024-03-08T06:53:31;35.60;;;18.85;;
67776;SDS011;54576;52.020;5.536;2024-03-08T06:55:57;35.85;;;19.35;;
67776;SDS011;54576;52.020;5.536;2024-03-08T06:58:23;35.22;;;19.80;;
67776;SDS011;54576;52.020;5.536;2024-03-08T07:00:49;40.90;;;18.63;;
67776;SDS011;54576;52.020;5.536;2024-03-08T07:03:18;30.80;;;17.88;;
67776;SDS011;54576;52.020;5.536;2024-03-08T07:05:43;34.03;;;18.55;;
67776;SDS011;54576;52.020;5.536;2024-03-08T07:08:09;31.02;;;19.15;;
67776;SDS011;54576;52.020;5.536;2024-03-08T07:10:35;33.03;;;18.58;;
67776;SDS011;54576;52.020;5.536;2024-03-08T07:13:02;29.38;;;18.13;;
67776;SDS011;54576;52.020;5.536;2024-03-08T07:15:28;38.55;;;19.42;;
67776;SDS011;54576;52.020;5.536;2024-03-08T07:17:54;35.63;;;20.38;;
67776;SDS011;54576;52.020;5.536;2024-03-08T07:20:20;32.25;;;19.13;;
67776;SDS011;54576;52.020;5.536;2024-03-08T07:22:46;32.58;;;19.40;;
67776;SDS011;54576;52.020;5.536;2024-03-08T07:25:13;36.17;;;20.27;;
67776;SDS011;54576;52.020;5.536;2024-03-08T07:27:55;33.80;;;18.60;;
67776;SDS011;54576;52.020;5.536;2024-03-08T07:30:22;36.70;;;19.42;;
67776;SDS011;54576;52.020;5.536;2024-03-08T07:33:07;31.42;;;18.45;;
67776;SDS011;54576;52.020;5.536;2024-03-08T07:35:36;35.60;;;18.65;;
67776;SDS011;54576;52.020;5.536;2024-03-08T07:38:03;34.70;;;19.35;;
67776;SDS011;54576;52.020;5.536;2024-03-08T07:40:30;31.63;;;18.67;;
67776;SDS011;54576;52.020;5.536;2024-03-08T07:42:56;41.60;;;19.10;;
67776;SDS011;54576;52.020;5.536;2024-03-08T07:45:23;37.63;;;20.35;;
67776;SDS011;54576;52.020;5.536;2024-03-08T07:47:49;34.13;;;18.75;;
67776;SDS011;54576;52.020;5.536;2024-03-08T07:50:15;33.33;;;19.73;;
67776;SDS011;54576;52.020;5.536;2024-03-08T07:52:41;33.90;;;18.85;;
67776;SDS011;54576;52.020;5.536;2024-03-08T07:55:07;29.17;;;17.38;;
67776;SDS011;54576;52.020;5.536;2024-03-08T07:57:33;37.00;;;20.75;;
67776;SDS011;54576;52.020;5.536;2024-03-08T07:59:59;33.63;;;19.33;;
67776;SDS011;54576;52.020;5.536;2024-03-08T08:02:24;36.28;;;19.70;;
67776;SDS011;54576;52.020;5.536;2024-03-08T08:04:50;31.77;;;19.10;;
67776;SDS011;54576;52.020;5.536;2024-03-08T08:07:16;32.15;;;18.67;;
67776;SDS011;54576;52.020;5.536;2024-03-08T08:09:42;53.38;;;25.33;;
67776;SDS011;54576;52.020;5.536;2024-03-08T08:12:08;35.72;;;18.98;;
67776;SDS011;54576;52.020;5.536;2024-03-08T08:14:37;36.47;;;19.55;;
67776;SDS011;54576;52.020;5.536;2024-03-08T08:17:04;35.45;;;19.20;;
67776;SDS011;54576;52.020;5.536;2024-03-08T08:19:30;35.13;;;19.13;;
67776;SDS011;54576;52.020;5.536;2024-03-08T08:21:56;33.22;;;19.75;;
67776;SDS011;54576;52.020;5.536;2024-03-08T08:24:23;33.97;;;19.85;;
67776;SDS011;54576;52.020;5.536;2024-03-08T08:26:49;36.67;;;19.27;;
67776;SDS011;54576;52.020;5.536;2024-03-08T08:29:14;31.55;;;18.25;;
67776;SDS011;54576;52.020;5.536;2024-03-08T08:31:40;34.80;;;19.67;;
67776;SDS011;54576;52.020;5.536;2024-03-08T08:34:08;38.80;;;20.52;;
67776;SDS011;54576;52.020;5.536;2024-03-08T08:36:34;36.35;;;18.63;;
67776;SDS011;54576;52.020;5.536;2024-03-08T08:39:00;32.50;;;18.80;;
67776;SDS011;54576;52.020;5.536;2024-03-08T08:41:28;31.20;;;18.85;;
67776;SDS011;54576;52.020;5.536;2024-03-08T08:43:54;33.60;;;17.75;;
67776;SDS011;54576;52.020;5.536;2024-03-08T08:46:19;30.45;;;19.20;;
67776;SDS011;54576;52.020;5.536;2024-03-08T08:48:46;35.50;;;19.33;;
67776;SDS011;54576;52.020;5.536;2024-03-08T08:51:12;32.15;;;18.98;;
67776;SDS011;54576;52.020;5.536;2024-03-08T08:53:41;29.40;;;17.92;;
67776;SDS011;54576;52.020;5.536;2024-03-08T08:56:12;29.33;;;17.65;;
67776;SDS011;54576;52.020;5.536;2024-03-08T08:58:44;32.88;;;18.88;;
67776;SDS011;54576;52.020;5.536;2024-03-08T09:01:10;26.80;;;16.90;;
67776;SDS011;54576;52.020;5.536;2024-03-08T09:03:36;34.13;;;18.25;;
67776;SDS011;54576;52.020;5.536;2024-03-08T09:06:06;29.58;;;17.90;;
67776;SDS011;54576;52.020;5.536;2024-03-08T09:08:34;32.70;;;17.98;;
67776;SDS011;54576;52.020;5.536;2024-03-08T09:11:00;35.78;;;19.30;;
67776;SDS011;54576;52.020;5.536;2024-03-08T09:13:26;28.95;;;18.00;;
67776;SDS011;54576;52.020;5.536;2024-03-08T09:15:52;26.65;;;14.35;;
67776;SDS011;54576;52.020;5.536;2024-03-08T09:18:18;29.63;;;17.08;;
67776;SDS011;54576;52.020;5.536;2024-03-08T09:20:44;34.33;;;16.52;;
67776;SDS011;54576;52.020;5.536;2024-03-08T09:23:09;30.70;;;17.35;;
67776;SDS011;54576;52.020;5.536;2024-03-08T09:25:35;36.60;;;18.35;;
67776;SDS011;54576;52.020;5.536;2024-03-08T09:28:00;34.60;;;19.92;;
67776;SDS011;54576;52.020;5.536;2024-03-08T09:30:26;28.73;;;17.58;;
67776;SDS011;54576;52.020;5.536;2024-03-08T09:32:52;28.20;;;16.50;;
67776;SDS011;54576;52.020;5.536;2024-03-08T09:35:18;29.67;;;17.13;;
67776;SDS011;54576;52.020;5.536;2024-03-08T09:37:44;27.83;;;17.55;;
67776;SDS011;54576;52.020;5.536;2024-03-08T09:40:12;28.65;;;16.75;;
67776;SDS011;54576;52.020;5.536;2024-03-08T09:42:40;33.05;;;17.27;;
67776;SDS011;54576;52.020;5.536;2024-03-08T09:45:10;29.60;;;16.20;;
67776;SDS011;54576;52.020;5.536;2024-03-08T09:47:40;36.83;;;17.65;;
67776;SDS011;54576;52.020;5.536;2024-03-08T09:50:07;33.33;;;17.23;;
67776;SDS011;54576;52.020;5.536;2024-03-08T09:52:35;27.05;;;16.52;;
67776;SDS011;54576;52.020;5.536;2024-03-08T09:55:08;31.48;;;17.05;;
67776;SDS011;54576;52.020;5.536;2024-03-08T09:57:38;29.10;;;16.50;;
67776;SDS011;54576;52.020;5.536;2024-03-08T10:00:05;31.83;;;17.40;;
67776;SDS011;54576;52.020;5.536;2024-03-08T10:02:45;28.45;;;16.17;;
67776;SDS011;54576;52.020;5.536;2024-03-08T10:05:12;30.00;;;16.38;;
67776;SDS011;54576;52.020;5.536;2024-03-08T10:07:38;37.60;;;17.55;;
67776;SDS011;54576;52.020;5.536;2024-03-08T10:10:04;29.00;;;17.65;;
67776;SDS011;54576;52.020;5.536;2024-03-08T10:12:30;30.35;;;15.70;;
67776;SDS011;54576;52.020;5.536;2024-03-08T10:14:58;29.80;;;16.30;;
67776;SDS011;54576;52.020;5.536;2024-03-08T10:17:23;33.53;;;17.48;;
67776;SDS011;54576;52.020;5.536;2024-03-08T10:19:50;30.05;;;16.13;;
67776;SDS011;54576;52.020;5.536;2024-03-08T10:22:19;25.63;;;16.17;;
67776;SDS011;54576;52.020;5.536;2024-03-08T10:24:46;27.17;;;15.95;;
67776;SDS011;54576;52.020;5.536;2024-03-08T10:27:12;28.92;;;16.48;;
67776;SDS011;54576;52.020;5.536;2024-03-08T10:29:37;24.80;;;15.63;;
67776;SDS011;54576;52.020;5.536;2024-03-08T10:32:08;25.65;;;15.80;;
67776;SDS011;54576;52.020;5.536;2024-03-08T10:34:34;27.92;;;16.23;;
67776;SDS011;54576;52.020;5.536;2024-03-08T10:37:02;26.65;;;15.30;;
67776;SDS011;54576;52.020;5.536;2024-03-08T10:39:29;25.85;;;15.85;;
67776;SDS011;54576;52.020;5.536;2024-03-08T10:42:02;29.02;;;16.10;;
67776;SDS011;54576;52.020;5.536;2024-03-08T10:49:37;26.88;;;15.65;;
67776;SDS011;54576;52.020;5.536;2024-03-08T10:52:08;30.33;;;15.32;;
67776;SDS011;54576;52.020;5.536;2024-03-08T10:54:37;24.83;;;15.13;;
67776;SDS011;54576;52.020;5.536;2024-03-08T10:57:05;26.73;;;14.55;;
67776;SDS011;54576;52.020;5.536;2024-03-08T10:59:30;23.05;;;14.07;;
67776;SDS011;54576;52.020;5.536;2024-03-08T11:01:58;21.67;;;13.63;;
67776;SDS011;54576;52.020;5.536;2024-03-08T11:04:24;24.98;;;14.45;;
67776;SDS011;54576;52.020;5.536;2024-03-08T11:06:50;24.30;;;14.45;;
67776;SDS011;54576;52.020;5.536;2024-03-08T11:09:32;22.40;;;14.00;;
67776;SDS011;54576;52.020;5.536;2024-03-08T11:15:00;22.88;;;13.38;;
67776;SDS011;54576;52.020;5.536;2024-03-08T11:19:58;23.45;;;14.50;;
67776;SDS011;54576;52.020;5.536;2024-03-08T11:22:29;31.33;;;15.32;;
67776;SDS011;54576;52.020;5.536;2024-03-08T11:25:04;28.08;;;15.43;;
67776;SDS011;54576;52.020;5.536;2024-03-08T11:27:37;26.58;;;14.25;;
67776;SDS011;54576;52.020;5.536;2024-03-08T11:30:04;26.17;;;13.35;;
67776;SDS011;54576;52.020;5.536;2024-03-08T11:32:37;20.60;;;13.55;;
67776;SDS011;54576;52.020;5.536;2024-03-08T11:35:19;19.08;;;13.40;;
67776;SDS011;54576;52.020;5.536;2024-03-08T11:37:47;19.50;;;12.13;;
67776;SDS011;54576;52.020;5.536;2024-03-08T11:40:13;24.20;;;12.45;;
67776;SDS011;54576;52.020;5.536;2024-03-08T11:42:43;23.02;;;12.85;;
67776;SDS011;54576;52.020;5.536;2024-03-08T11:45:11;19.63;;;12.52;;
67776;SDS011;54576;52.020;5.536;2024-03-08T11:47:38;22.15;;;12.52;;
67776;SDS011;54576;52.020;5.536;2024-03-08T11:50:06;24.42;;;13.20;;
67776;SDS011;54576;52.020;5.536;2024-03-08T11:52:35;20.27;;;12.55;;
67776;SDS011;54576;52.020;5.536;2024-03-08T11:55:02;20.70;;;13.05;;
67776;SDS011;54576;52.020;5.536;2024-03-08T11:57:30;18.35;;;12.52;;
67776;SDS011;54576;52.020;5.536;2024-03-08T11:59:56;21.13;;;11.85;;
67776;SDS011;54576;52.020;5.536;2024-03-08T12:02:31;20.65;;;12.68;;
67776;SDS011;54576;52.020;5.536;2024-03-08T12:05:01;21.33;;;12.45;;
67776;SDS011;54576;52.020;5.536;2024-03-08T12:07:31;22.83;;;12.40;;
67776;SDS011;54576;52.020;5.536;2024-03-08T12:10:16;20.10;;;11.23;;
67776;SDS011;54576;52.020;5.536;2024-03-08T12:12:47;20.00;;;12.40;;
67776;SDS011;54576;52.020;5.536;2024-03-08T12:15:15;26.80;;;12.73;;
67776;SDS011;54576;52.020;5.536;2024-03-08T12:17:42;15.75;;;10.95;;
67776;SDS011;54576;52.020;5.536;2024-03-08T12:20:13;17.27;;;11.90;;
67776;SDS011;54576;52.020;5.536;2024-03-08T12:22:49;22.73;;;13.05;;
67776;SDS011;54576;52.020;5.536;2024-03-08T12:25:17;20.95;;;13.88;;
67776;SDS011;54576;52.020;5.536;2024-03-08T12:27:43;18.85;;;12.00;;
67776;SDS011;54576;52.020;5.536;2024-03-08T12:32:58;22.63;;;12.77;;
67776;SDS011;54576;52.020;5.536;2024-03-08T12:35:25;26.73;;;12.02;;
67776;SDS011;54576;52.020;5.536;2024-03-08T12:37:52;21.65;;;13.02;;
67776;SDS011;54576;52.020;5.536;2024-03-08T12:40:19;17.35;;;12.82;;
67776;SDS011;54576;52.020;5.536;2024-03-08T12:43:00;18.90;;;11.57;;
67776;SDS011;54576;52.020;5.536;2024-03-08T12:45:26;19.98;;;13.65;;
67776;SDS011;54576;52.020;5.536;2024-03-08T12:47:52;18.95;;;12.55;;
67776;SDS011;54576;52.020;5.536;2024-03-08T12:50:19;20.17;;;12.35;;
67776;SDS011;54576;52.020;5.536;2024-03-08T12:52:45;21.35;;;12.90;;
67776;SDS011;54576;52.020;5.536;2024-03-08T12:55:11;19.98;;;13.25;;
67776;SDS011;54576;52.020;5.536;2024-03-08T12:57:37;22.08;;;13.27;;
67776;SDS011;54576;52.020;5.536;2024-03-08T13:00:04;24.33;;;13.07;;
67776;SDS011;54576;52.020;5.536;2024-03-08T13:02:30;20.70;;;14.15;;
67776;SDS011;54576;52.020;5.536;2024-03-08T13:04:57;20.65;;;13.20;;
67776;SDS011;54576;52.020;5.536;2024-03-08T13:07:24;23.00;;;13.02;;
67776;SDS011;54576;52.020;5.536;2024-03-08T13:09:53;24.02;;;14.55;;
67776;SDS011;54576;52.020;5.536;2024-03-08T13:12:19;22.85;;;12.52;;
67776;SDS011;54576;52.020;5.536;2024-03-08T13:14:45;23.83;;;16.75;;
67776;SDS011;54576;52.020;5.536;2024-03-08T13:17:12;24.45;;;12.52;;
67776;SDS011;54576;52.020;5.536;2024-03-08T13:19:38;20.77;;;13.75;;
67776;SDS011;54576;52.020;5.536;2024-03-08T13:22:04;23.38;;;13.35;;
67776;SDS011;54576;52.020;5.536;2024-03-08T13:24:30;22.88;;;13.38;;
67776;SDS011;54576;52.020;5.536;2024-03-08T13:26:56;22.65;;;13.65;;
67776;SDS011;54576;52.020;5.536;2024-03-08T13:29:22;19.83;;;13.00;;
67776;SDS011;54576;52.020;5.536;2024-03-08T13:31:48;23.92;;;14.70;;
67776;SDS011;54576;52.020;5.536;2024-03-08T13:34:16;23.55;;;14.00;;
67776;SDS011;54576;52.020;5.536;2024-03-08T13:36:42;28.80;;;13.70;;
67776;SDS011;54576;52.020;5.536;2024-03-08T13:39:10;28.10;;;13.98;;
67776;SDS011;54576;52.020;5.536;2024-03-08T13:41:45;22.10;;;13.38;;
67776;SDS011;54576;52.020;5.536;2024-03-08T13:44:11;25.63;;;13.05;;
67776;SDS011;54576;52.020;5.536;2024-03-08T13:46:37;24.35;;;14.18;;
67776;SDS011;54576;52.020;5.536;2024-03-08T13:49:03;24.58;;;13.48;;
67776;SDS011;54576;52.020;5.536;2024-03-08T13:51:35;26.17;;;14.45;;
67776;SDS011;54576;52.020;5.536;2024-03-08T13:54:01;26.33;;;14.35;;
67776;SDS011;54576;52.020;5.536;2024-03-08T13:56:27;23.30;;;13.98;;
67776;SDS011;54576;52.020;5.536;2024-03-08T13:58:56;24.88;;;15.63;;
67776;SDS011;54576;52.020;5.536;2024-03-08T14:01:22;25.30;;;14.20;;
67776;SDS011;54576;52.020;5.536;2024-03-08T14:03:48;24.88;;;13.57;;
67776;SDS011;54576;52.020;5.536;2024-03-08T14:06:14;23.10;;;14.10;;
67776;SDS011;54576;52.020;5.536;2024-03-08T14:08:40;22.42;;;13.73;;
67776;SDS011;54576;52.020;5.536;2024-03-08T14:11:06;23.50;;;14.57;;
67776;SDS011;54576;52.020;5.536;2024-03-08T14:13:40;26.13;;;14.18;;
67776;SDS011;54576;52.020;5.536;2024-03-08T14:16:09;24.42;;;12.75;;
67776;SDS011;54576;52.020;5.536;2024-03-08T14:18:35;21.20;;;14.07;;
67776;SDS011;54576;52.020;5.536;2024-03-08T14:21:01;21.17;;;13.18;;
67776;SDS011;54576;52.020;5.536;2024-03-08T14:23:29;26.23;;;14.10;;
67776;SDS011;54576;52.020;5.536;2024-03-08T14:25:54;25.65;;;13.70;;
67776;SDS011;54576;52.020;5.536;2024-03-08T14:28:20;22.27;;;14.23;;
67776;SDS011;54576;52.020;5.536;2024-03-08T14:30:47;24.05;;;14.55;;
67776;SDS011;54576;52.020;5.536;2024-03-08T14:33:14;22.50;;;13.60;;
67776;SDS011;54576;52.020;5.536;2024-03-08T14:35:41;20.73;;;13.45;;